sensor_id;sensor_type;location;lat;lon;timestamp;pressure;altitude;pressure_sealevel;temperature;humidity
22862;BME280;11598;50.652;6.172;2023-02-23T00:04:54;96052.81;;;6.79;100.00
22862;BME280;11598;50.652;6.172;2023-02-23T00:14:55;96050.22;;;6.79;100.00
22862;BME280;11598;50.652;6.172;2023-02-23T00:24:55;96056.34;;;6.78;100.00
22862;BME280;11598;50.652;6.172;2023-02-23T00:34:56;96050.22;;;6.79;100.00
22862;BME280;11598;50.652;6.172;2023-02-23T00:44:57;96050.44;;;6.63;100.00
22862;BME280;11598;50.652;6.172;2023-02-23T00:54:57;96051.78;;;6.42;100.00
22862;BME280;11598;50.652;6.172;2023-02-23T01:04:58;96057.53;;;6.32;100.00
22862;BME280;11598;50.652;6.172;2023-02-23T01:14:58;96054.25;;;6.30;100.00
22862;BME280;11598;50.652;6.172;2023-02-23T01:24:58;96060.22;;;6.31;100.00
22862;BME280;11598;50.652;6.172;2023-02-23T01:34:59;96062.81;;;6.31;100.00
22862;BME280;11598;50.652;6.172;2023-02-23T01:45:21;96065.41;;;6.31;100.00
22862;BME280;11598;50.652;6.172;2023-02-23T01:55:23;96047.41;;;6.29;100.00
22862;BME280;11598;50.652;6.172;2023-02-23T02:05:25;96054.44;;;6.27;100.00
22862;BME280;11598;50.652;6.172;2023-02-23T02:15:32;96056.19;;;6.27;100.00
22862;BME280;11598;50.652;6.172;2023-02-23T02:46:06;96046.84;;;6.11;100.00
22862;BME280;11598;50.652;6.172;2023-02-23T02:56:10;96039.41;;;6.07;100.00
22862;BME280;11598;50.652;6.172;2023-02-23T03:06:12;96035.25;;;6.04;100.00
22862;BME280;11598;50.652;6.172;2023-02-23T03:27:19;96043.09;;;6.03;100.00
22862;BME280;11598;50.652;6.172;2023-02-23T03:37:52;96049.38;;;5.99;100.00
22862;BME280;11598;50.652;6.172;2023-02-23T03:48:15;96053.97;;;5.93;100.00
22862;BME280;11598;50.652;6.172;2023-02-23T03:58:41;96052.41;;;5.91;100.00
22862;BME280;11598;50.652;6.172;2023-02-23T04:09:05;96062.78;;;5.89;100.00
22862;BME280;11598;50.652;6.172;2023-02-23T04:19:26;96065.50;;;5.88;100.00
22862;BME280;11598;50.652;6.172;2023-02-23T04:29:27;96076.63;;;5.88;100.00
22862;BME280;11598;50.652;6.172;2023-02-23T04:39:28;96071.63;;;5.85;100.00
22862;BME280;11598;50.652;6.172;2023-02-23T04:49:28;96078.53;;;5.85;100.00
22862;BME280;11598;50.652;6.172;2023-02-23T04:59:28;96080.31;;;5.84;100.00
22862;BME280;11598;50.652;6.172;2023-02-23T05:09:30;96083.69;;;5.85;100.00
22862;BME280;11598;50.652;6.172;2023-02-23T05:19:30;96079.47;;;5.84;100.00
22862;BME280;11598;50.652;6.172;2023-02-23T05:29:30;96088.13;;;5.83;100.00
22862;BME280;11598;50.652;6.172;2023-02-23T05:39:31;96092.38;;;5.84;100.00
22862;BME280;11598;50.652;6.172;2023-02-23T05:49:31;96087.31;;;5.82;100.00
22862;BME280;11598;50.652;6.172;2023-02-23T05:59:32;96093.28;;;5.83;100.00
22862;BME280;11598;50.652;6.172;2023-02-23T06:09:32;96087.31;;;5.82;100.00
22862;BME280;11598;50.652;6.172;2023-02-23T06:19:33;96104.53;;;5.82;100.00
22862;BME280;11598;50.652;6.172;2023-02-23T06:29:33;96105.34;;;5.82;100.00
22862;BME280;11598;50.652;6.172;2023-02-23T06:39:34;96119.91;;;5.83;100.00
22862;BME280;11598;50.652;6.172;2023-02-23T06:49:34;96130.03;;;5.86;100.00
22862;BME280;11598;50.652;6.172;2023-02-23T06:59:34;96138.59;;;5.87;100.00
22862;BME280;11598;50.652;6.172;2023-02-23T07:09:35;96150.66;;;5.86;100.00
22862;BME280;11598;50.652;6.172;2023-02-23T07:19:36;96162.72;;;5.86;100.00
22862;BME280;11598;50.652;6.172;2023-02-23T07:29:36;96172.91;;;5.87;100.00
22862;BME280;11598;50.652;6.172;2023-02-23T07:39:37;96181.50;;;5.88;100.00
22862;BME280;11598;50.652;6.172;2023-02-23T07:49:37;96177.06;;;5.90;100.00
22862;BME280;11598;50.652;6.172;2023-02-23T07:59:37;96186.47;;;5.91;100.00
22862;BME280;11598;50.652;6.172;2023-02-23T08:09:38;96203.59;;;5.92;100.00
22862;BME280;11598;50.652;6.172;2023-02-23T08:19:38;96206.94;;;5.94;100.00
22862;BME280;11598;50.652;6.172;2023-02-23T08:29:39;96205.66;;;6.01;100.00
22862;BME280;11598;50.652;6.172;2023-02-23T08:39:39;96208.88;;;6.05;100.00
22862;BME280;11598;50.652;6.172;2023-02-23T08:49:39;96225.44;;;6.15;100.00
22862;BME280;11598;50.652;6.172;2023-02-23T08:59:40;96233.47;;;6.25;100.00
22862;BME280;11598;50.652;6.172;2023-02-23T09:09:40;96240.00;;;6.30;100.00
22862;BME280;11598;50.652;6.172;2023-02-23T09:19:41;96254.00;;;6.26;100.00
22862;BME280;11598;50.652;6.172;2023-02-23T09:29:41;96250.06;;;6.35;100.00
22862;BME280;11598;50.652;6.172;2023-02-23T09:39:42;96264.25;;;6.42;100.00
22862;BME280;11598;50.652;6.172;2023-02-23T09:49:46;96271.59;;;6.48;100.00
22862;BME280;11598;50.652;6.172;2023-02-23T09:59:48;96281.56;;;6.54;100.00
22862;BME280;11598;50.652;6.172;2023-02-23T10:30:23;96295.19;;;6.56;100.00
22862;BME280;11598;50.652;6.172;2023-02-23T10:40:26;96293.34;;;6.59;100.00
22862;BME280;11598;50.652;6.172;2023-02-23T10:50:27;96302.81;;;6.58;100.00
22862;BME280;11598;50.652;6.172;2023-02-23T11:00:31;96302.25;;;6.67;100.00
22862;BME280;11598;50.652;6.172;2023-02-23T11:10:32;96309.84;;;6.70;100.00
22862;BME280;11598;50.652;6.172;2023-02-23T11:20:38;96302.34;;;6.80;100.00
22862;BME280;11598;50.652;6.172;2023-02-23T11:30:42;96304.00;;;6.81;100.00
22862;BME280;11598;50.652;6.172;2023-02-23T11:41:16;96302.69;;;6.88;100.00
22862;BME280;11598;50.652;6.172;2023-02-23T11:51:25;96296.47;;;6.78;100.00
22862;BME280;11598;50.652;6.172;2023-02-23T12:01:40;96279.56;;;6.72;100.00
22862;BME280;11598;50.652;6.172;2023-02-23T12:11:49;96276.00;;;6.61;100.00
22862;BME280;11598;50.652;6.172;2023-02-23T12:32:10;96279.53;;;6.02;100.00
22862;BME280;11598;50.652;6.172;2023-02-23T12:42:24;96281.19;;;5.73;100.00
22862;BME280;11598;50.652;6.172;2023-02-23T12:52:28;96287.34;;;5.70;100.00
22862;BME280;11598;50.652;6.172;2023-02-23T13:02:43;96290.81;;;5.55;100.00
22862;BME280;11598;50.652;6.172;2023-02-23T13:33:12;96288.63;;;5.17;100.00
22862;BME280;11598;50.652;6.172;2023-02-23T13:43:27;96294.53;;;5.19;100.00
22862;BME280;11598;50.652;6.172;2023-02-23T14:03:43;96309.31;;;5.62;100.00
22862;BME280;11598;50.652;6.172;2023-02-23T14:14:00;96305.34;;;5.56;100.00
22862;BME280;11598;50.652;6.172;2023-02-23T14:34:53;96302.53;;;5.45;100.00
22862;BME280;11598;50.652;6.172;2023-02-23T14:44:57;96305.47;;;5.39;100.00
22862;BME280;11598;50.652;6.172;2023-02-23T14:55:25;96307.94;;;5.40;100.00
22862;BME280;11598;50.652;6.172;2023-02-23T15:05:41;96326.91;;;5.39;100.00
22862;BME280;11598;50.652;6.172;2023-02-23T15:15:44;96324.16;;;5.42;100.00
22862;BME280;11598;50.652;6.172;2023-02-23T15:25:45;96331.56;;;5.33;100.00
22862;BME280;11598;50.652;6.172;2023-02-23T15:36:06;96331.81;;;5.28;100.00
22862;BME280;11598;50.652;6.172;2023-02-23T15:46:07;96339.56;;;5.28;100.00
22862;BME280;11598;50.652;6.172;2023-02-23T15:56:12;96332.34;;;5.19;100.00
22862;BME280;11598;50.652;6.172;2023-02-23T16:06:23;96337.72;;;5.14;100.00
22862;BME280;11598;50.652;6.172;2023-02-23T16:16:23;96329.25;;;5.12;100.00
22862;BME280;11598;50.652;6.172;2023-02-23T16:26:32;96322.53;;;5.09;100.00
22862;BME280;11598;50.652;6.172;2023-02-23T16:36:35;96330.50;;;5.05;100.00
22862;BME280;11598;50.652;6.172;2023-02-23T16:46:57;96330.25;;;5.09;100.00
22862;BME280;11598;50.652;6.172;2023-02-23T16:57:20;96331.25;;;5.07;100.00
22862;BME280;11598;50.652;6.172;2023-02-23T17:07:22;96341.72;;;5.04;100.00
22862;BME280;11598;50.652;6.172;2023-02-23T17:17:22;96338.81;;;4.94;100.00
22862;BME280;11598;50.652;6.172;2023-02-23T17:27:23;96341.72;;;4.88;100.00
22862;BME280;11598;50.652;6.172;2023-02-23T17:37:23;96353.00;;;4.85;100.00
22862;BME280;11598;50.652;6.172;2023-02-23T17:47:24;96348.88;;;4.83;100.00
22862;BME280;11598;50.652;6.172;2023-02-23T17:57:25;96352.56;;;4.77;100.00
22862;BME280;11598;50.652;6.172;2023-02-23T18:07:27;96358.88;;;4.72;100.00
22862;BME280;11598;50.652;6.172;2023-02-23T18:17:27;96364.97;;;4.71;100.00
22862;BME280;11598;50.652;6.172;2023-02-23T18:27:33;96365.72;;;4.73;100.00
22862;BME280;11598;50.652;6.172;2023-02-23T18:37:35;96361.53;;;4.70;100.00
22862;BME280;11598;50.652;6.172;2023-02-23T18:47:35;96359.06;;;4.69;100.00
22862;BME280;11598;50.652;6.172;2023-02-23T18:57:36;96356.38;;;4.70;100.00
22862;BME280;11598;50.652;6.172;2023-02-23T19:07:38;96360.47;;;4.74;100.00
22862;BME280;11598;50.652;6.172;2023-02-23T19:17:39;96358.72;;;4.75;100.00
22862;BME280;11598;50.652;6.172;2023-02-23T19:27:40;96361.63;;;4.69;100.00
22862;BME280;11598;50.652;6.172;2023-02-23T19:37:45;96354.56;;;4.56;100.00
22862;BME280;11598;50.652;6.172;2023-02-23T19:47:46;96365.00;;;4.53;100.00
22862;BME280;11598;50.652;6.172;2023-02-23T19:57:47;96368.63;;;4.49;100.00
22862;BME280;11598;50.652;6.172;2023-02-23T20:07:49;96371.59;;;4.41;100.00
22862;BME280;11598;50.652;6.172;2023-02-23T20:17:50;96385.78;;;4.33;100.00
22862;BME280;11598;50.652;6.172;2023-02-23T20:27:53;96384.31;;;4.27;100.00
22862;BME280;11598;50.652;6.172;2023-02-23T20:37:53;96384.56;;;4.22;100.00
22862;BME280;11598;50.652;6.172;2023-02-23T20:47:54;96383.22;;;4.15;100.00
22862;BME280;11598;50.652;6.172;2023-02-23T20:57:55;96384.25;;;4.11;100.00
22862;BME280;11598;50.652;6.172;2023-02-23T21:08:02;96385.34;;;4.07;100.00
22862;BME280;11598;50.652;6.172;2023-02-23T21:18:04;96380.78;;;4.12;100.00
22862;BME280;11598;50.652;6.172;2023-02-23T21:28:05;96375.66;;;4.12;100.00
22862;BME280;11598;50.652;6.172;2023-02-23T21:38:05;96355.69;;;4.17;100.00
22862;BME280;11598;50.652;6.172;2023-02-23T21:48:07;96350.47;;;4.19;100.00
22862;BME280;11598;50.652;6.172;2023-02-23T21:58:07;96322.94;;;4.21;100.00
22862;BME280;11598;50.652;6.172;2023-02-23T22:08:08;96327.00;;;4.25;100.00
22862;BME280;11598;50.652;6.172;2023-02-23T22:18:08;96329.75;;;4.22;100.00
22862;BME280;11598;50.652;6.172;2023-02-23T22:28:08;96324.81;;;4.17;100.00
22862;BME280;11598;50.652;6.172;2023-02-23T22:38:09;96318.09;;;4.15;100.00
22862;BME280;11598;50.652;6.172;2023-02-23T22:48:10;96329.84;;;4.03;100.00
22862;BME280;11598;50.652;6.172;2023-02-23T22:58:10;96313.81;;;3.98;100.00
22862;BME280;11598;50.652;6.172;2023-02-23T23:08:11;96317.22;;;3.98;100.00
22862;BME280;11598;50.652;6.172;2023-02-23T23:18:12;96300.63;;;4.04;100.00
22862;BME280;11598;50.652;6.172;2023-02-23T23:28:13;96295.13;;;4.12;100.00
22862;BME280;11598;50.652;6.172;2023-02-23T23:38:13;96275.38;;;4.12;100.00
22862;BME280;11598;50.652;6.172;2023-02-23T23:48:14;96264.28;;;4.12;100.00
22862;BME280;11598;50.652;6.172;2023-02-23T23:58:14;96252.66;;;4.05;100.00
